sensor_id;sensor_type;location;lat;lon;timestamp;P1;durP1;ratioP1;P2;durP2;ratioP2
7475;SDS011;3779;49.216;8.650;2023-08-30T02:19:29;2.20;;;2.00;;
7475;SDS011;3779;49.216;8.650;2023-08-30T02:22:15;2.03;;;1.83;;
7475;SDS011;3779;49.216;8.650;2023-08-30T02:25:01;2.85;;;2.10;;
7475;SDS011;3779;49.216;8.650;2023-08-30T02:27:50;1.95;;;1.77;;
7475;SDS011;3779;49.216;8.650;2023-08-30T02:30:36;2.75;;;2.10;;
7475;SDS011;3779;49.216;8.650;2023-08-30T02:33:22;2.50;;;2.30;;
7475;SDS011;3779;49.216;8.650;2023-08-30T02:36:08;2.10;;;1.92;;
7475;SDS011;3779;49.216;8.650;2023-08-30T02:38:53;1.90;;;1.80;;
7475;SDS011;3779;49.216;8.650;2023-08-30T02:41:39;3.13;;;1.95;;
7475;SDS011;3779;49.216;8.650;2023-08-30T02:44:25;2.08;;;1.98;;
7475;SDS011;3779;49.216;8.650;2023-08-30T02:47:11;2.85;;;1.83;;
7475;SDS011;3779;49.216;8.650;2023-08-30T02:49:57;2.42;;;2.22;;
7475;SDS011;3779;49.216;8.650;2023-08-30T02:52:43;2.10;;;1.90;;
7475;SDS011;3779;49.216;8.650;2023-08-30T02:55:28;2.10;;;1.90;;
7475;SDS011;3779;49.216;8.650;2023-08-30T02:58:15;1.88;;;1.77;;
7475;SDS011;3779;49.216;8.650;2023-08-30T03:01:01;1.95;;;1.85;;
7475;SDS011;3779;49.216;8.650;2023-08-30T03:03:48;1.92;;;1.80;;
7475;SDS011;3779;49.216;8.650;2023-08-30T03:06:36;2.67;;;2.22;;
7475;SDS011;3779;49.216;8.650;2023-08-30T03:09:23;2.10;;;1.90;;
7475;SDS011;3779;49.216;8.650;2023-08-30T03:12:09;1.98;;;1.80;;
7475;SDS011;3779;49.216;8.650;2023-08-30T03:14:54;1.60;;;1.50;;
7475;SDS011;3779;49.216;8.650;2023-08-30T03:17:41;1.80;;;1.70;;
7475;SDS011;3779;49.216;8.650;2023-08-30T03:20:27;3.05;;;1.92;;
7475;SDS011;3779;49.216;8.650;2023-08-30T03:23:15;1.85;;;1.70;;
7475;SDS011;3779;49.216;8.650;2023-08-30T03:26:11;2.42;;;2.22;;
7475;SDS011;3779;49.216;8.650;2023-08-30T03:28:57;1.95;;;1.70;;
7475;SDS011;3779;49.216;8.650;2023-08-30T03:31:45;2.35;;;2.00;;
7475;SDS011;3779;49.216;8.650;2023-08-30T03:34:31;1.90;;;1.70;;
7475;SDS011;3779;49.216;8.650;2023-08-30T03:37:16;1.80;;;1.70;;
7475;SDS011;3779;49.216;8.650;2023-08-30T03:40:02;1.98;;;1.88;;
7475;SDS011;3779;49.216;8.650;2023-08-30T03:42:50;3.55;;;1.90;;
7475;SDS011;3779;49.216;8.650;2023-08-30T03:45:36;2.35;;;1.90;;
7475;SDS011;3779;49.216;8.650;2023-08-30T03:48:22;3.03;;;1.60;;
7475;SDS011;3779;49.216;8.650;2023-08-30T03:51:07;2.63;;;2.13;;
7475;SDS011;3779;49.216;8.650;2023-08-30T03:53:54;2.15;;;2.03;;
7475;SDS011;3779;49.216;8.650;2023-08-30T03:56:44;1.77;;;1.67;;
7475;SDS011;3779;49.216;8.650;2023-08-30T03:59:31;2.20;;;1.70;;
7475;SDS011;3779;49.216;8.650;2023-08-30T04:02:18;2.70;;;1.40;;
7475;SDS011;3779;49.216;8.650;2023-08-30T04:05:04;1.80;;;1.70;;
7475;SDS011;3779;49.216;8.650;2023-08-30T04:07:54;2.10;;;1.90;;
7475;SDS011;3779;49.216;8.650;2023-08-30T04:10:40;1.88;;;1.77;;
7475;SDS011;3779;49.216;8.650;2023-08-30T04:13:27;1.90;;;1.60;;
7475;SDS011;3779;49.216;8.650;2023-08-30T04:16:13;1.90;;;1.80;;
7475;SDS011;3779;49.216;8.650;2023-08-30T04:18:59;2.00;;;1.80;;
7475;SDS011;3779;49.216;8.650;2023-08-30T04:21:45;1.90;;;1.67;;
7475;SDS011;3779;49.216;8.650;2023-08-30T04:24:30;2.90;;;2.00;;
7475;SDS011;3779;49.216;8.650;2023-08-30T04:27:16;2.97;;;1.77;;
7475;SDS011;3779;49.216;8.650;2023-08-30T04:30:02;1.75;;;1.65;;
7475;SDS011;3779;49.216;8.650;2023-08-30T04:32:49;1.70;;;1.60;;
7475;SDS011;3779;49.216;8.650;2023-08-30T04:35:35;2.03;;;1.85;;
7475;SDS011;3779;49.216;8.650;2023-08-30T04:38:20;1.83;;;1.73;;
7475;SDS011;3779;49.216;8.650;2023-08-30T04:41:07;2.38;;;1.80;;
7475;SDS011;3779;49.216;8.650;2023-08-30T04:43:54;1.90;;;1.80;;
7475;SDS011;3779;49.216;8.650;2023-08-30T04:46:40;1.75;;;1.65;;
7475;SDS011;3779;49.216;8.650;2023-08-30T04:49:26;2.00;;;1.88;;
7475;SDS011;3779;49.216;8.650;2023-08-30T04:52:12;1.92;;;1.73;;
7475;SDS011;3779;49.216;8.650;2023-08-30T04:54:58;2.83;;;2.60;;
7475;SDS011;3779;49.216;8.650;2023-08-30T04:57:45;3.00;;;2.80;;
7475;SDS011;3779;49.216;8.650;2023-08-30T05:00:34;3.90;;;2.90;;
7475;SDS011;3779;49.216;8.650;2023-08-30T05:03:22;3.55;;;2.92;;
7475;SDS011;3779;49.216;8.650;2023-08-30T05:06:08;3.53;;;2.80;;
7475;SDS011;3779;49.216;8.650;2023-08-30T05:08:54;3.03;;;2.83;;
7475;SDS011;3779;49.216;8.650;2023-08-30T05:11:40;3.63;;;2.80;;
7475;SDS011;3779;49.216;8.650;2023-08-30T05:14:25;2.75;;;2.55;;
7475;SDS011;3779;49.216;8.650;2023-08-30T05:17:12;3.17;;;2.78;;
7475;SDS011;3779;49.216;8.650;2023-08-30T05:19:57;3.00;;;2.80;;
7475;SDS011;3779;49.216;8.650;2023-08-30T05:22:44;3.08;;;2.83;;
7475;SDS011;3779;49.216;8.650;2023-08-30T05:25:30;2.85;;;2.60;;
7475;SDS011;3779;49.216;8.650;2023-08-30T05:28:16;4.22;;;2.90;;
7475;SDS011;3779;49.216;8.650;2023-08-30T05:31:02;3.47;;;3.17;;
7475;SDS011;3779;49.216;8.650;2023-08-30T05:34:08;4.53;;;2.70;;
7475;SDS011;3779;49.216;8.650;2023-08-30T05:37:13;3.55;;;2.97;;
7475;SDS011;3779;49.216;8.650;2023-08-30T05:43:34;2.80;;;2.60;;
7475;SDS011;3779;49.216;8.650;2023-08-30T05:49:33;3.83;;;2.40;;
7475;SDS011;3779;49.216;8.650;2023-08-30T05:52:20;2.40;;;2.20;;
7475;SDS011;3779;49.216;8.650;2023-08-30T05:55:13;5.05;;;2.17;;
7475;SDS011;3779;49.216;8.650;2023-08-30T05:57:59;2.92;;;2.15;;
7475;SDS011;3779;49.216;8.650;2023-08-30T06:00:50;3.60;;;2.30;;
7475;SDS011;3779;49.216;8.650;2023-08-30T06:06:59;3.22;;;2.92;;
7475;SDS011;3779;49.216;8.650;2023-08-30T06:09:45;3.00;;;2.80;;
7475;SDS011;3779;49.216;8.650;2023-08-30T06:12:43;3.30;;;3.00;;
7475;SDS011;3779;49.216;8.650;2023-08-30T06:15:29;4.57;;;3.03;;
7475;SDS011;3779;49.216;8.650;2023-08-30T06:18:15;3.13;;;2.92;;
7475;SDS011;3779;49.216;8.650;2023-08-30T06:21:01;3.97;;;3.40;;
7475;SDS011;3779;49.216;8.650;2023-08-30T06:23:49;3.63;;;3.28;;
7475;SDS011;3779;49.216;8.650;2023-08-30T06:32:48;5.30;;;2.97;;
7475;SDS011;3779;49.216;8.650;2023-08-30T06:35:36;5.47;;;3.05;;
7475;SDS011;3779;49.216;8.650;2023-08-30T06:38:36;2.95;;;2.63;;
7475;SDS011;3779;49.216;8.650;2023-08-30T06:41:22;2.58;;;2.38;;
7475;SDS011;3779;49.216;8.650;2023-08-30T06:44:08;4.00;;;3.03;;
7475;SDS011;3779;49.216;8.650;2023-08-30T06:46:54;4.43;;;3.00;;
7475;SDS011;3779;49.216;8.650;2023-08-30T06:49:41;3.40;;;2.83;;
7475;SDS011;3779;49.216;8.650;2023-08-30T06:52:27;3.42;;;2.33;;
7475;SDS011;3779;49.216;8.650;2023-08-30T06:55:13;5.63;;;2.45;;
7475;SDS011;3779;49.216;8.650;2023-08-30T08:09:46;3.85;;;2.50;;
7475;SDS011;3779;49.216;8.650;2023-08-30T08:12:32;2.85;;;2.10;;
7475;SDS011;3779;49.216;8.650;2023-08-30T08:15:18;3.58;;;2.10;;
7475;SDS011;3779;49.216;8.650;2023-08-30T08:18:04;2.70;;;2.03;;
7475;SDS011;3779;49.216;8.650;2023-08-30T08:20:50;1.90;;;1.80;;
7475;SDS011;3779;49.216;8.650;2023-08-30T08:23:36;2.47;;;2.10;;
7475;SDS011;3779;49.216;8.650;2023-08-30T08:26:21;2.45;;;2.13;;
7475;SDS011;3779;49.216;8.650;2023-08-30T08:29:07;2.08;;;1.88;;
7475;SDS011;3779;49.216;8.650;2023-08-30T08:31:53;1.98;;;1.60;;
7475;SDS011;3779;49.216;8.650;2023-08-30T08:34:39;3.17;;;1.55;;
7475;SDS011;3779;49.216;8.650;2023-08-30T08:37:25;3.25;;;1.85;;
7475;SDS011;3779;49.216;8.650;2023-08-30T08:40:10;2.08;;;1.80;;
7475;SDS011;3779;49.216;8.650;2023-08-30T08:42:56;1.95;;;1.75;;
7475;SDS011;3779;49.216;8.650;2023-08-30T08:45:44;2.40;;;2.00;;
7475;SDS011;3779;49.216;8.650;2023-08-30T08:48:31;2.70;;;1.80;;
7475;SDS011;3779;49.216;8.650;2023-08-30T08:51:18;1.60;;;1.50;;
7475;SDS011;3779;49.216;8.650;2023-08-30T08:54:06;2.65;;;1.50;;
7475;SDS011;3779;49.216;8.650;2023-08-30T08:56:51;2.10;;;1.70;;
7475;SDS011;3779;49.216;8.650;2023-08-30T08:59:39;2.97;;;1.60;;
7475;SDS011;3779;49.216;8.650;2023-08-30T09:02:25;2.20;;;1.85;;
7475;SDS011;3779;49.216;8.650;2023-08-30T09:05:11;2.40;;;1.50;;
7475;SDS011;3779;49.216;8.650;2023-08-30T09:07:57;2.40;;;1.60;;
7475;SDS011;3779;49.216;8.650;2023-08-30T09:10:43;1.58;;;1.48;;
7475;SDS011;3779;49.216;8.650;2023-08-30T09:13:29;3.47;;;1.73;;
7475;SDS011;3779;49.216;8.650;2023-08-30T09:16:16;1.80;;;1.55;;
7475;SDS011;3779;49.216;8.650;2023-08-30T09:19:02;1.73;;;1.60;;
7475;SDS011;3779;49.216;8.650;2023-08-30T09:21:57;1.65;;;1.55;;
7475;SDS011;3779;49.216;8.650;2023-08-30T09:24:43;1.70;;;1.60;;
7475;SDS011;3779;49.216;8.650;2023-08-30T09:27:32;2.78;;;1.63;;
7475;SDS011;3779;49.216;8.650;2023-08-30T09:30:22;1.60;;;1.50;;
7475;SDS011;3779;49.216;8.650;2023-08-30T09:33:08;1.80;;;1.70;;
7475;SDS011;3779;49.216;8.650;2023-08-30T09:35:54;1.77;;;1.50;;
7475;SDS011;3779;49.216;8.650;2023-08-30T09:38:40;1.58;;;1.48;;
7475;SDS011;3779;49.216;8.650;2023-08-30T09:41:26;3.72;;;1.63;;
7475;SDS011;3779;49.216;8.650;2023-08-30T09:44:12;1.65;;;1.40;;
7475;SDS011;3779;49.216;8.650;2023-08-30T09:46:59;1.50;;;1.40;;
7475;SDS011;3779;49.216;8.650;2023-08-30T09:49:45;1.33;;;1.23;;
7475;SDS011;3779;49.216;8.650;2023-08-30T09:52:31;2.78;;;1.70;;
7475;SDS011;3779;49.216;8.650;2023-08-30T09:55:19;1.50;;;1.40;;
7475;SDS011;3779;49.216;8.650;2023-08-30T09:58:06;3.00;;;1.55;;
7475;SDS011;3779;49.216;8.650;2023-08-30T10:00:53;1.40;;;1.30;;
7475;SDS011;3779;49.216;8.650;2023-08-30T10:03:39;1.63;;;1.33;;
7475;SDS011;3779;49.216;8.650;2023-08-30T10:06:25;1.40;;;1.30;;
7475;SDS011;3779;49.216;8.650;2023-08-30T10:09:12;1.58;;;1.48;;
7475;SDS011;3779;49.216;8.650;2023-08-30T10:12:00;1.55;;;1.40;;
7475;SDS011;3779;49.216;8.650;2023-08-30T10:14:48;1.38;;;1.27;;
7475;SDS011;3779;49.216;8.650;2023-08-30T10:17:34;1.95;;;1.48;;
7475;SDS011;3779;49.216;8.650;2023-08-30T10:20:23;1.50;;;1.40;;
7475;SDS011;3779;49.216;8.650;2023-08-30T10:23:10;1.48;;;1.38;;
7475;SDS011;3779;49.216;8.650;2023-08-30T10:25:56;1.60;;;1.50;;
7475;SDS011;3779;49.216;8.650;2023-08-30T10:28:44;1.40;;;1.30;;
7475;SDS011;3779;49.216;8.650;2023-08-30T10:31:30;1.30;;;1.20;;
7475;SDS011;3779;49.216;8.650;2023-08-30T10:34:16;1.58;;;1.48;;
7475;SDS011;3779;49.216;8.650;2023-08-30T10:37:08;1.73;;;1.58;;
7475;SDS011;3779;49.216;8.650;2023-08-30T10:40:01;1.48;;;1.38;;
7475;SDS011;3779;49.216;8.650;2023-08-30T10:43:00;1.40;;;1.30;;
7475;SDS011;3779;49.216;8.650;2023-08-30T10:45:57;1.30;;;1.20;;
7475;SDS011;3779;49.216;8.650;2023-08-30T10:48:56;1.67;;;1.58;;
7475;SDS011;3779;49.216;8.650;2023-08-30T10:51:56;1.55;;;1.45;;
7475;SDS011;3779;49.216;8.650;2023-08-30T10:54:43;1.52;;;1.38;;
7475;SDS011;3779;49.216;8.650;2023-08-30T10:57:29;1.40;;;1.30;;
7475;SDS011;3779;49.216;8.650;2023-08-30T11:00:19;1.88;;;1.40;;
7475;SDS011;3779;49.216;8.650;2023-08-30T11:03:10;1.20;;;1.20;;
7475;SDS011;3779;49.216;8.650;2023-08-30T11:05:56;1.50;;;1.40;;
7475;SDS011;3779;49.216;8.650;2023-08-30T11:08:47;1.50;;;1.40;;
7475;SDS011;3779;49.216;8.650;2023-08-30T11:11:37;2.10;;;1.65;;
7475;SDS011;3779;49.216;8.650;2023-08-30T11:14:23;1.38;;;1.27;;
7475;SDS011;3779;49.216;8.650;2023-08-30T11:17:09;1.30;;;1.20;;
7475;SDS011;3779;49.216;8.650;2023-08-30T11:20:14;1.55;;;1.30;;
7475;SDS011;3779;49.216;8.650;2023-08-30T11:23:05;1.52;;;1.30;;
7475;SDS011;3779;49.216;8.650;2023-08-30T11:25:51;1.38;;;1.27;;
7475;SDS011;3779;49.216;8.650;2023-08-30T11:28:36;1.50;;;1.35;;
7475;SDS011;3779;49.216;8.650;2023-08-30T11:31:27;1.45;;;1.35;;
7475;SDS011;3779;49.216;8.650;2023-08-30T11:34:12;1.42;;;1.33;;
7475;SDS011;3779;49.216;8.650;2023-08-30T11:37:00;1.40;;;1.30;;
7475;SDS011;3779;49.216;8.650;2023-08-30T16:22:08;1.48;;;1.38;;
7475;SDS011;3779;49.216;8.650;2023-08-30T16:24:54;1.60;;;1.50;;
7475;SDS011;3779;49.216;8.650;2023-08-30T16:27:39;1.30;;;1.20;;
7475;SDS011;3779;49.216;8.650;2023-08-30T16:30:25;1.40;;;1.30;;
7475;SDS011;3779;49.216;8.650;2023-08-30T16:33:14;1.42;;;1.33;;
7475;SDS011;3779;49.216;8.650;2023-08-30T16:36:03;1.23;;;1.13;;
7475;SDS011;3779;49.216;8.650;2023-08-30T16:38:49;1.05;;;1.05;;
7475;SDS011;3779;49.216;8.650;2023-08-30T16:41:35;1.40;;;1.30;;
7475;SDS011;3779;49.216;8.650;2023-08-30T16:44:21;1.27;;;1.17;;
7475;SDS011;3779;49.216;8.650;2023-08-30T16:47:06;2.17;;;1.23;;
7475;SDS011;3779;49.216;8.650;2023-08-30T16:49:52;1.30;;;1.20;;
7475;SDS011;3779;49.216;8.650;2023-08-30T16:52:40;1.35;;;1.25;;
7475;SDS011;3779;49.216;8.650;2023-08-30T16:55:25;1.30;;;1.20;;
7475;SDS011;3779;49.216;8.650;2023-08-30T16:58:11;1.30;;;1.20;;
7475;SDS011;3779;49.216;8.650;2023-08-30T17:00:58;1.30;;;1.20;;
7475;SDS011;3779;49.216;8.650;2023-08-30T17:03:43;1.33;;;1.23;;
7475;SDS011;3779;49.216;8.650;2023-08-30T17:06:29;1.42;;;1.30;;
7475;SDS011;3779;49.216;8.650;2023-08-30T17:09:15;1.42;;;1.33;;
7475;SDS011;3779;49.216;8.650;2023-08-30T17:12:01;1.35;;;1.25;;
7475;SDS011;3779;49.216;8.650;2023-08-30T17:14:48;1.30;;;1.20;;
7475;SDS011;3779;49.216;8.650;2023-08-30T17:17:33;1.40;;;1.20;;
7475;SDS011;3779;49.216;8.650;2023-08-30T17:20:19;1.30;;;1.20;;
7475;SDS011;3779;49.216;8.650;2023-08-30T17:23:05;1.45;;;1.35;;
7475;SDS011;3779;49.216;8.650;2023-08-30T17:25:51;1.30;;;1.20;;
7475;SDS011;3779;49.216;8.650;2023-08-30T18:37:36;1.50;;;1.40;;
7475;SDS011;3779;49.216;8.650;2023-08-30T18:40:22;1.40;;;1.30;;
7475;SDS011;3779;49.216;8.650;2023-08-30T18:43:09;1.30;;;1.20;;
7475;SDS011;3779;49.216;8.650;2023-08-30T18:45:55;1.17;;;1.08;;
7475;SDS011;3779;49.216;8.650;2023-08-30T18:48:44;1.45;;;1.35;;
7475;SDS011;3779;49.216;8.650;2023-08-30T18:51:30;1.20;;;1.10;;
7475;SDS011;3779;49.216;8.650;2023-08-30T18:54:16;1.00;;;1.00;;
7475;SDS011;3779;49.216;8.650;2023-08-30T18:57:02;1.25;;;1.15;;
7475;SDS011;3779;49.216;8.650;2023-08-30T18:59:48;1.45;;;1.35;;
7475;SDS011;3779;49.216;8.650;2023-08-30T19:02:34;1.85;;;1.20;;
7475;SDS011;3779;49.216;8.650;2023-08-30T19:05:19;1.30;;;1.20;;
7475;SDS011;3779;49.216;8.650;2023-08-30T19:08:06;1.40;;;1.20;;
7475;SDS011;3779;49.216;8.650;2023-08-30T19:10:52;1.30;;;1.20;;
7475;SDS011;3779;49.216;8.650;2023-08-30T19:13:38;2.10;;;1.27;;
7475;SDS011;3779;49.216;8.650;2023-08-30T19:16:24;1.17;;;1.08;;
7475;SDS011;3779;49.216;8.650;2023-08-30T19:19:10;1.20;;;1.10;;
7475;SDS011;3779;49.216;8.650;2023-08-30T19:21:56;1.10;;;1.10;;
7475;SDS011;3779;49.216;8.650;2023-08-30T19:24:42;1.13;;;1.08;;
7475;SDS011;3779;49.216;8.650;2023-08-30T19:27:27;2.90;;;1.20;;
7475;SDS011;3779;49.216;8.650;2023-08-30T19:30:13;1.20;;;1.10;;
7475;SDS011;3779;49.216;8.650;2023-08-30T19:32:59;1.65;;;1.05;;
7475;SDS011;3779;49.216;8.650;2023-08-30T19:35:45;2.35;;;2.17;;
7475;SDS011;3779;49.216;8.650;2023-08-30T19:38:31;1.38;;;1.27;;
7475;SDS011;3779;49.216;8.650;2023-08-30T19:41:17;5.35;;;4.60;;
7475;SDS011;3779;49.216;8.650;2023-08-30T19:44:03;10.73;;;9.63;;
7475;SDS011;3779;49.216;8.650;2023-08-30T19:46:49;4.78;;;4.30;;
7475;SDS011;3779;49.216;8.650;2023-08-30T19:49:34;3.42;;;3.10;;
7475;SDS011;3779;49.216;8.650;2023-08-30T19:52:20;2.90;;;2.47;;
7475;SDS011;3779;49.216;8.650;2023-08-30T19:55:06;2.30;;;2.10;;
7475;SDS011;3779;49.216;8.650;2023-08-30T19:57:52;1.70;;;1.60;;
7475;SDS011;3779;49.216;8.650;2023-08-30T20:00:38;2.72;;;1.45;;
7475;SDS011;3779;49.216;8.650;2023-08-30T20:03:24;1.40;;;1.30;;
7475;SDS011;3779;49.216;8.650;2023-08-30T20:06:10;1.45;;;1.30;;
7475;SDS011;3779;49.216;8.650;2023-08-30T20:08:56;1.60;;;1.50;;
7475;SDS011;3779;49.216;8.650;2023-08-30T20:11:41;2.08;;;1.40;;
7475;SDS011;3779;49.216;8.650;2023-08-30T20:14:29;1.48;;;1.38;;
7475;SDS011;3779;49.216;8.650;2023-08-30T20:17:15;1.52;;;1.27;;
7475;SDS011;3779;49.216;8.650;2023-08-30T20:20:00;1.40;;;1.30;;
7475;SDS011;3779;49.216;8.650;2023-08-30T20:22:46;1.40;;;1.27;;
7475;SDS011;3779;49.216;8.650;2023-08-30T20:25:32;1.40;;;1.30;;
7475;SDS011;3779;49.216;8.650;2023-08-30T20:28:21;1.20;;;1.10;;
7475;SDS011;3779;49.216;8.650;2023-08-30T20:31:08;1.60;;;1.27;;
7475;SDS011;3779;49.216;8.650;2023-08-30T20:33:56;1.95;;;1.30;;
7475;SDS011;3779;49.216;8.650;2023-08-30T20:36:42;1.30;;;1.20;;
7475;SDS011;3779;49.216;8.650;2023-08-30T20:39:28;1.30;;;1.20;;
7475;SDS011;3779;49.216;8.650;2023-08-30T20:42:13;1.50;;;1.40;;
7475;SDS011;3779;49.216;8.650;2023-08-30T20:44:59;1.08;;;1.08;;
7475;SDS011;3779;49.216;8.650;2023-08-30T20:47:45;1.70;;;1.40;;
7475;SDS011;3779;49.216;8.650;2023-08-30T20:50:34;1.55;;;1.30;;
7475;SDS011;3779;49.216;8.650;2023-08-30T20:53:20;1.30;;;1.13;;
7475;SDS011;3779;49.216;8.650;2023-08-30T20:56:06;1.45;;;1.17;;
